Airports

 

 

Airport Name Latest METAR Visual Conditions
Atlantic City Int. (ACY) KACY 281654Z 24012G24KT 10SM OVC065 06/M08 A2989 RMK AO2 PK WND 26027/1558 SLP122 T00561083 VFR
Baltimore International Airport (BWI) KBWI 281654Z 26013G18KT 10SM SCT044 SCT065 SCT110 SCT250 07/M07 A2989 RMK AO2 SLP122 VIRGA NW-NE T00671067 VFR
Washington National Airport (DCA) KDCA 281652Z 23009KT 10SM BKN065 BKN250 07/M06 A2991 RMK AO2 SLP129 T00671061 VFR
Dulles International Airport (IAD) KIAD 281652Z 28009KT 10SM FEW043 OVC065 06/M06 A2990 RMK AO2 SLP125 T00561056 VFR
Norfolk International Airport (ORF) KORF 281651Z 23012KT 10SM CLR 09/M07 A2998 RMK AO2 SLP151 T00941067 VFR
Raleigh International Airport (RDU) KRDU 281651Z 24013G20KT 10SM FEW050 SCT100 BKN250 09/M05 A3003 RMK AO2 SLP171 T00891050 VFR
Richmond International Airport (RIC) KRIC 281654Z 26015KT 10SM SCT060 BKN180 BKN300 09/M06 A2996 RMK AO2 SLP150 T00891061 PNO $ VFR
Roanoke Regional Airport (ROA) KROA 281654Z 25013G21KT 10SM SCT043 OVC055 04/M05 A2997 RMK AO2 SLP156 SHSN S-W T00441050 VFR